Weippe, ID (83553)

3:42 AM PST on February 07, 2016 (GMT -0800)
APRSWXNET | | Change Station
CLOSE
Current Station
Personal Weather Station
Location: Weippe, ID
Elevation: 3069 ft
Nearby Weather Stations

Elev 3069 ft 46.38 °N, 115.95 °W | Updated 33 minutes ago

Clear
Clear
22 °F
Feels Like 22 °F
N
0
Wind Variable Wind from WNW
Gusts 0.0 mph

Today
High -- | Low -- °F
--% Chance of Precip.
Yesterday
High -- | Low -- °F
Precip. -- in
Pressure 30.47 in
Visibility 10.0 miles
Clouds Clear
Windchill 22 °F
Dew Point 20 °F
Humidity 93%
Rainfall in
Snow Depth Not available.
6:59 AM 4:56 PM
Waning Crescent, 2% visible
METAR KGIC 071135Z AUTO 00000KT 10SM CLR M02/M03 A3047 RMK AO1
Pressure 30.47 in
Visibility 10.0 miles
Clouds Clear
Windchill 22 °F
Dew Point 20 °F
Humidity 93%
Rainfall in
Snow Depth Not available.
6:59 AM 4:56 PM
Waning Crescent, 2% visible
METAR KGIC 071135Z AUTO 00000KT 10SM CLR M02/M03 A3047 RMK AO1

10-Day Weather Forecast

Almanac

Astronomy

Feb. 07, 2016 Rise Set
Actual Time
Civil Twilight
Nautical Twilight
Astronomical Twilight
Moon
Length of Visible Light
Length of Day
Tomorrow will be .
, % of the Moon is Illuminated

Today's Extremes

State Highs State Lows

Community

WunderPhotos

Upload Photos

1,891,182 photos uploaded!

WunderBlog® & News

Nearby

Air Quality

  Air Quality AQ Index Pollutant
Not available.

Snow Depth

Station Depth Elevation

Earthquake Activity

City Distance Mag. Time & Date
Minimum magnitude displayed is 2.5.

Coastal Water Temperatures

Place Temperature

Stations

Nearby Weather Stations

Station Location Temp. Windchill Dew Point Humidity Wind Precip. Elev Updated Type
                   

Watches & Warnings

There are currently no watches in effect.